sensor_id;sensor_type;location;lat;lon;timestamp;pressure;altitude;pressure_sealevel;temperature;humidity
80938;BME280;70395;51.382;7.074;2023-07-31T00:01:48;99928.16;;;18.62;68.51
80938;BME280;70395;51.382;7.074;2023-07-31T00:04:14;99916.47;;;18.62;68.72
80938;BME280;70395;51.382;7.074;2023-07-31T00:06:39;99930.88;;;18.62;69.01
80938;BME280;70395;51.382;7.074;2023-07-31T00:09:05;99930.88;;;18.62;68.58
80938;BME280;70395;51.382;7.074;2023-07-31T00:11:31;99923.56;;;18.63;68.38
80938;BME280;70395;51.382;7.074;2023-07-31T00:13:58;99931.50;;;18.64;69.08
80938;BME280;70395;51.382;7.074;2023-07-31T00:16:23;99933.19;;;18.65;68.49
80938;BME280;70395;51.382;7.074;2023-07-31T00:18:49;99934.00;;;18.66;68.75
80938;BME280;70395;51.382;7.074;2023-07-31T00:21:15;99921.88;;;18.68;68.46
80938;BME280;70395;51.382;7.074;2023-07-31T00:23:41;99926.06;;;18.71;68.69
80938;BME280;70395;51.382;7.074;2023-07-31T00:26:06;99928.59;;;18.73;68.41
80938;BME280;70395;51.382;7.074;2023-07-31T00:28:32;99920.22;;;18.74;69.05
80938;BME280;70395;51.382;7.074;2023-07-31T00:30:58;99923.16;;;18.73;68.31
80938;BME280;70395;51.382;7.074;2023-07-31T00:33:24;99927.75;;;18.72;68.54
80938;BME280;70395;51.382;7.074;2023-07-31T00:35:49;99922.31;;;18.72;68.52
80938;BME280;70395;51.382;7.074;2023-07-31T00:38:15;99924.19;;;18.72;68.12
80938;BME280;70395;51.382;7.074;2023-07-31T00:40:41;99923.97;;;18.73;68.84
80938;BME280;70395;51.382;7.074;2023-07-31T00:43:07;99925.66;;;18.74;68.50
80938;BME280;70395;51.382;7.074;2023-07-31T00:45:32;99913.53;;;18.77;68.20
80938;BME280;70395;51.382;7.074;2023-07-31T00:47:59;99912.69;;;18.76;68.50
80938;BME280;70395;51.382;7.074;2023-07-31T00:50:25;99929.00;;;18.76;68.56
80938;BME280;70395;51.382;7.074;2023-07-31T00:52:51;99917.09;;;18.77;68.50
80938;BME280;70395;51.382;7.074;2023-07-31T00:55:18;99923.34;;;18.78;68.18
80938;BME280;70395;51.382;7.074;2023-07-31T00:57:45;99914.16;;;18.79;68.26
80938;BME280;70395;51.382;7.074;2023-07-31T01:00:11;99920.44;;;18.79;68.42
80938;BME280;70395;51.382;7.074;2023-07-31T01:02:38;99922.09;;;18.80;68.31
80938;BME280;70395;51.382;7.074;2023-07-31T01:05:04;99914.78;;;18.81;68.15
80938;BME280;70395;51.382;7.074;2023-07-31T01:10:31;99922.09;;;18.80;67.82
80938;BME280;70395;51.382;7.074;2023-07-31T01:13:00;99921.66;;;18.84;68.05
80938;BME280;70395;51.382;7.074;2023-07-31T01:15:25;99918.72;;;18.85;67.98
80938;BME280;70395;51.382;7.074;2023-07-31T01:17:51;99912.25;;;18.86;67.85
80938;BME280;70395;51.382;7.074;2023-07-31T01:20:26;99904.13;;;18.86;67.78
80938;BME280;70395;51.382;7.074;2023-07-31T01:28:11;99914.34;;;18.84;67.69
80938;BME280;70395;51.382;7.074;2023-07-31T01:30:44;99919.56;;;18.86;67.31
80938;BME280;70395;51.382;7.074;2023-07-31T01:33:14;99913.09;;;18.87;67.59
80938;BME280;70395;51.382;7.074;2023-07-31T01:35:45;99921.44;;;18.85;67.20
80938;BME280;70395;51.382;7.074;2023-07-31T01:38:11;99916.00;;;18.85;67.32
80938;BME280;70395;51.382;7.074;2023-07-31T01:40:40;99908.94;;;18.84;67.32
80938;BME280;70395;51.382;7.074;2023-07-31T01:43:06;99912.25;;;18.86;66.99
80938;BME280;70395;51.382;7.074;2023-07-31T01:45:32;99914.75;;;18.88;67.50
80938;BME280;70395;51.382;7.074;2023-07-31T01:47:58;99907.47;;;18.88;67.23
80938;BME280;70395;51.382;7.074;2023-07-31T01:50:24;99908.06;;;18.90;67.05
80938;BME280;70395;51.382;7.074;2023-07-31T01:52:49;99899.94;;;18.90;67.02
80938;BME280;70395;51.382;7.074;2023-07-31T01:55:15;99908.91;;;18.91;66.58
80938;BME280;70395;51.382;7.074;2023-07-31T01:57:41;99897.81;;;18.93;66.65
80938;BME280;70395;51.382;7.074;2023-07-31T02:00:07;99903.06;;;18.94;67.15
80938;BME280;70395;51.382;7.074;2023-07-31T02:02:33;99889.25;;;18.96;66.65
80938;BME280;70395;51.382;7.074;2023-07-31T02:04:59;99903.06;;;18.94;66.64
80938;BME280;70395;51.382;7.074;2023-07-31T02:07:24;99892.19;;;18.94;66.73
80938;BME280;70395;51.382;7.074;2023-07-31T02:09:50;99898.06;;;18.91;66.75
80938;BME280;70395;51.382;7.074;2023-07-31T02:12:16;99895.56;;;18.89;66.28
80938;BME280;70395;51.382;7.074;2023-07-31T02:14:42;99891.38;;;18.87;66.64
80938;BME280;70395;51.382;7.074;2023-07-31T02:17:08;99881.34;;;18.87;66.07
80938;BME280;70395;51.382;7.074;2023-07-31T02:19:34;99879.44;;;18.88;66.20
80938;BME280;70395;51.382;7.074;2023-07-31T02:21:59;99880.28;;;18.88;66.21
80938;BME280;70395;51.382;7.074;2023-07-31T02:24:25;99871.72;;;18.91;65.93
80938;BME280;70395;51.382;7.074;2023-07-31T02:26:51;99887.19;;;18.91;66.09
80938;BME280;70395;51.382;7.074;2023-07-31T02:29:17;99874.66;;;18.90;65.78
80938;BME280;70395;51.382;7.074;2023-07-31T02:31:42;99886.78;;;18.87;65.93
80938;BME280;70395;51.382;7.074;2023-07-31T02:34:08;99881.34;;;18.87;65.96
80938;BME280;70395;51.382;7.074;2023-07-31T02:36:34;99871.31;;;18.88;65.74
80938;BME280;70395;51.382;7.074;2023-07-31T02:39:00;99883.84;;;18.89;66.28
80938;BME280;70395;51.382;7.074;2023-07-31T02:41:25;99878.19;;;18.90;65.98
80938;BME280;70395;51.382;7.074;2023-07-31T02:43:51;99872.97;;;18.89;66.02
80938;BME280;70395;51.382;7.074;2023-07-31T02:46:19;99877.81;;;18.87;65.34
80938;BME280;70395;51.382;7.074;2023-07-31T02:48:45;99866.94;;;18.87;65.59
80938;BME280;70395;51.382;7.074;2023-07-31T02:51:11;99858.78;;;18.87;65.20
80938;BME280;70395;51.382;7.074;2023-07-31T02:53:37;99860.66;;;18.86;65.40
80938;BME280;70395;51.382;7.074;2023-07-31T02:56:03;99864.22;;;18.87;65.71
80938;BME280;70395;51.382;7.074;2023-07-31T02:58:29;99873.22;;;18.87;65.71
80938;BME280;70395;51.382;7.074;2023-07-31T03:00:54;99863.16;;;18.88;65.34
80938;BME280;70395;51.382;7.074;2023-07-31T03:03:20;99853.97;;;18.89;65.45
80938;BME280;70395;51.382;7.074;2023-07-31T03:05:46;99855.84;;;18.88;65.22
80938;BME280;70395;51.382;7.074;2023-07-31T03:08:11;99854.81;;;18.89;65.53
80938;BME280;70395;51.382;7.074;2023-07-31T03:10:43;99852.09;;;18.89;65.61
80938;BME280;70395;51.382;7.074;2023-07-31T03:13:09;99851.66;;;18.93;65.35
80938;BME280;70395;51.382;7.074;2023-07-31T03:15:35;99851.47;;;18.94;65.82
80938;BME280;70395;51.382;7.074;2023-07-31T03:18:01;99850.19;;;18.97;65.56
80938;BME280;70395;51.382;7.074;2023-07-31T03:20:26;99848.31;;;18.97;65.47
80938;BME280;70395;51.382;7.074;2023-07-31T03:22:52;99851.03;;;18.97;65.32
80938;BME280;70395;51.382;7.074;2023-07-31T03:25:18;99848.09;;;18.99;65.89
80938;BME280;70395;51.382;7.074;2023-07-31T03:27:43;99845.38;;;18.99;65.67
80938;BME280;70395;51.382;7.074;2023-07-31T03:30:10;99851.44;;;19.01;65.37
80938;BME280;70395;51.382;7.074;2023-07-31T03:32:35;99850.41;;;19.02;65.40
80938;BME280;70395;51.382;7.074;2023-07-31T03:35:01;99853.94;;;19.02;65.02
80938;BME280;70395;51.382;7.074;2023-07-31T03:37:27;99855.59;;;19.04;65.43
80938;BME280;70395;51.382;7.074;2023-07-31T03:39:54;99857.28;;;19.05;65.37
80938;BME280;70395;51.382;7.074;2023-07-31T03:42:20;99850.59;;;19.07;65.39
80938;BME280;70395;51.382;7.074;2023-07-31T03:44:46;99850.16;;;19.10;65.34
80938;BME280;70395;51.382;7.074;2023-07-31T03:47:11;99842.59;;;19.12;65.25
80938;BME280;70395;51.382;7.074;2023-07-31T03:49:37;99844.06;;;19.15;65.40
80938;BME280;70395;51.382;7.074;2023-07-31T03:52:04;99844.72;;;19.17;65.14
80938;BME280;70395;51.382;7.074;2023-07-31T03:54:29;99837.41;;;19.18;64.93
80938;BME280;70395;51.382;7.074;2023-07-31T03:56:55;99845.56;;;19.18;65.59
80938;BME280;70395;51.382;7.074;2023-07-31T03:59:21;99836.13;;;19.20;65.58
80938;BME280;70395;51.382;7.074;2023-07-31T04:01:47;99846.81;;;19.22;65.41
80938;BME280;70395;51.382;7.074;2023-07-31T04:04:12;99849.31;;;19.23;65.07
80938;BME280;70395;51.382;7.074;2023-07-31T04:06:38;99846.34;;;19.25;65.13
80938;BME280;70395;51.382;7.074;2023-07-31T04:09:04;99840.72;;;19.27;65.10
80938;BME280;70395;51.382;7.074;2023-07-31T04:11:30;99836.94;;;19.28;65.50
80938;BME280;70395;51.382;7.074;2023-07-31T04:13:56;99830.25;;;19.30;65.08
80938;BME280;70395;51.382;7.074;2023-07-31T04:16:21;99828.38;;;19.31;64.99
80938;BME280;70395;51.382;7.074;2023-07-31T04:18:47;99829.81;;;19.33;64.79
80938;BME280;70395;51.382;7.074;2023-07-31T04:21:13;99837.75;;;19.35;65.27
80938;BME280;70395;51.382;7.074;2023-07-31T04:23:39;99823.97;;;19.37;64.77
80938;BME280;70395;51.382;7.074;2023-07-31T04:26:04;99822.06;;;19.37;64.99
80938;BME280;70395;51.382;7.074;2023-07-31T04:28:30;99819.75;;;19.41;65.10
80938;BME280;70395;51.382;7.074;2023-07-31T04:30:57;99827.25;;;19.45;64.52
80938;BME280;70395;51.382;7.074;2023-07-31T04:33:23;99825.16;;;19.47;64.92
80938;BME280;70395;51.382;7.074;2023-07-31T04:35:51;99826.84;;;19.49;65.24
80938;BME280;70395;51.382;7.074;2023-07-31T04:38:19;99827.44;;;19.51;64.94
80938;BME280;70395;51.382;7.074;2023-07-31T04:40:45;99821.56;;;19.54;64.97
80938;BME280;70395;51.382;7.074;2023-07-31T04:43:11;99819.66;;;19.54;65.21
80938;BME280;70395;51.382;7.074;2023-07-31T04:45:37;99808.78;;;19.54;64.78
80938;BME280;70395;51.382;7.074;2023-07-31T04:48:02;99815.06;;;19.55;64.96
80938;BME280;70395;51.382;7.074;2023-07-31T04:50:28;99814.03;;;19.56;64.85
80938;BME280;70395;51.382;7.074;2023-07-31T04:52:56;99813.19;;;19.55;65.05
80938;BME280;70395;51.382;7.074;2023-07-31T04:55:22;99815.91;;;19.55;64.73
80938;BME280;70395;51.382;7.074;2023-07-31T04:57:48;99806.72;;;19.56;65.17
80938;BME280;70395;51.382;7.074;2023-07-31T05:00:13;99812.97;;;19.57;65.13
80938;BME280;70395;51.382;7.074;2023-07-31T05:02:39;99801.28;;;19.56;64.98
80938;BME280;70395;51.382;7.074;2023-07-31T05:05:05;99799.38;;;19.57;65.19
80938;BME280;70395;51.382;7.074;2023-07-31T05:07:31;99802.69;;;19.59;65.23
80938;BME280;70395;51.382;7.074;2023-07-31T05:09:57;99788.91;;;19.61;64.73
80938;BME280;70395;51.382;7.074;2023-07-31T05:12:22;99783.84;;;19.64;65.19
80938;BME280;70395;51.382;7.074;2023-07-31T05:14:48;99777.13;;;19.67;65.27
80938;BME280;70395;51.382;7.074;2023-07-31T05:17:14;99775.88;;;19.69;65.11
80938;BME280;70395;51.382;7.074;2023-07-31T05:19:40;99781.09;;;19.71;65.30
80938;BME280;70395;51.382;7.074;2023-07-31T05:22:06;99781.47;;;19.75;65.13
80938;BME280;70395;51.382;7.074;2023-07-31T05:24:31;99779.97;;;19.79;64.79
80938;BME280;70395;51.382;7.074;2023-07-31T05:26:57;99780.59;;;19.81;65.19
80938;BME280;70395;51.382;7.074;2023-07-31T05:29:23;99781.22;;;19.83;65.31
80938;BME280;70395;51.382;7.074;2023-07-31T05:31:49;99768.91;;;19.80;65.15
80938;BME280;70395;51.382;7.074;2023-07-31T05:34:14;99775.16;;;19.81;65.24
80938;BME280;70395;51.382;7.074;2023-07-31T05:36:40;99773.28;;;19.81;64.83
80938;BME280;70395;51.382;7.074;2023-07-31T05:39:06;99774.94;;;19.83;64.70
80938;BME280;70395;51.382;7.074;2023-07-31T05:41:35;99766.78;;;19.83;65.07
80938;BME280;70395;51.382;7.074;2023-07-31T05:44:01;99769.28;;;19.84;64.76
80938;BME280;70395;51.382;7.074;2023-07-31T05:46:27;99760.28;;;19.84;64.63
80938;BME280;70395;51.382;7.074;2023-07-31T05:48:53;99751.50;;;19.81;65.23
80938;BME280;70395;51.382;7.074;2023-07-31T05:51:18;99762.84;;;19.78;64.82
80938;BME280;70395;51.382;7.074;2023-07-31T05:53:44;99752.78;;;19.79;65.03
80938;BME280;70395;51.382;7.074;2023-07-31T05:56:10;99747.94;;;19.81;65.15
80938;BME280;70395;51.382;7.074;2023-07-31T05:58:36;99746.91;;;19.82;64.95
80938;BME280;70395;51.382;7.074;2023-07-31T06:01:01;99755.91;;;19.83;64.69
80938;BME280;70395;51.382;7.074;2023-07-31T06:03:27;99751.91;;;19.85;64.68
80938;BME280;70395;51.382;7.074;2023-07-31T06:05:53;99748.97;;;19.87;64.81
80938;BME280;70395;51.382;7.074;2023-07-31T06:08:19;99744.13;;;19.89;64.62
80938;BME280;70395;51.382;7.074;2023-07-31T06:10:44;99733.03;;;19.90;64.61
80938;BME280;70395;51.382;7.074;2023-07-31T06:13:10;99731.78;;;19.93;64.67
80938;BME280;70395;51.382;7.074;2023-07-31T06:15:36;99731.31;;;19.96;64.90
80938;BME280;70395;51.382;7.074;2023-07-31T06:18:02;99721.88;;;19.99;65.14
80938;BME280;70395;51.382;7.074;2023-07-31T06:20:28;99724.38;;;20.00;64.95
80938;BME280;70395;51.382;7.074;2023-07-31T06:22:54;99727.47;;;20.04;64.72
80938;BME280;70395;51.382;7.074;2023-07-31T06:25:20;99725.34;;;20.06;64.30
80938;BME280;70395;51.382;7.074;2023-07-31T06:27:46;99726.81;;;20.09;64.16
80938;BME280;70395;51.382;7.074;2023-07-31T06:30:12;99717.78;;;20.08;64.56
80938;BME280;70395;51.382;7.074;2023-07-31T06:32:38;99723.88;;;20.10;64.78
80938;BME280;70395;51.382;7.074;2023-07-31T06:35:04;99718.63;;;20.09;64.68
80938;BME280;70395;51.382;7.074;2023-07-31T06:37:30;99722.44;;;20.08;64.76
80938;BME280;70395;51.382;7.074;2023-07-31T06:39:55;99725.75;;;20.10;64.95
80938;BME280;70395;51.382;7.074;2023-07-31T06:42:21;99721.56;;;20.14;64.44
80938;BME280;70395;51.382;7.074;2023-07-31T06:44:47;99727.84;;;20.14;64.61
80938;BME280;70395;51.382;7.074;2023-07-31T06:47:13;99727.59;;;20.16;65.13
80938;BME280;70395;51.382;7.074;2023-07-31T06:49:39;99731.59;;;20.13;64.74
80938;BME280;70395;51.382;7.074;2023-07-31T06:52:05;99728.69;;;20.08;64.82
80938;BME280;70395;51.382;7.074;2023-07-31T06:54:31;99718.88;;;20.07;65.20
80938;BME280;70395;51.382;7.074;2023-07-31T06:56:56;99744.41;;;20.06;65.16
80938;BME280;70395;51.382;7.074;2023-07-31T06:59:22;99732.31;;;20.02;65.11
80938;BME280;70395;51.382;7.074;2023-07-31T07:01:48;99737.16;;;20.00;64.82
80938;BME280;70395;51.382;7.074;2023-07-31T07:04:14;99746.34;;;19.99;65.45
80938;BME280;70395;51.382;7.074;2023-07-31T07:06:40;99736.31;;;19.99;65.00
80938;BME280;70395;51.382;7.074;2023-07-31T07:09:06;99731.91;;;19.98;64.83
80938;BME280;70395;51.382;7.074;2023-07-31T07:11:32;99727.91;;;20.01;64.80
80938;BME280;70395;51.382;7.074;2023-07-31T07:13:57;99735.63;;;20.04;65.91
80938;BME280;70395;51.382;7.074;2023-07-31T07:16:23;99728.91;;;20.07;65.30
80938;BME280;70395;51.382;7.074;2023-07-31T07:18:49;99731.19;;;20.10;65.14
80938;BME280;70395;51.382;7.074;2023-07-31T07:21:15;99724.72;;;20.11;65.13
80938;BME280;70395;51.382;7.074;2023-07-31T07:23:42;99731.84;;;20.12;65.56
80938;BME280;70395;51.382;7.074;2023-07-31T07:26:08;99726.59;;;20.10;65.56
80938;BME280;70395;51.382;7.074;2023-07-31T07:28:34;99723.03;;;20.10;65.55
80938;BME280;70395;51.382;7.074;2023-07-31T07:30:59;99720.31;;;20.10;65.35
80938;BME280;70395;51.382;7.074;2023-07-31T07:33:25;99726.59;;;20.10;65.62
80938;BME280;70395;51.382;7.074;2023-07-31T07:35:51;99724.06;;;20.09;65.61
80938;BME280;70395;51.382;7.074;2023-07-31T07:38:17;99720.09;;;20.11;65.52
80938;BME280;70395;51.382;7.074;2023-07-31T07:40:45;99716.53;;;20.11;65.30
80938;BME280;70395;51.382;7.074;2023-07-31T07:43:14;99715.91;;;20.09;65.59
80938;BME280;70395;51.382;7.074;2023-07-31T07:45:39;99713.88;;;20.04;65.73
80938;BME280;70395;51.382;7.074;2023-07-31T07:48:05;99715.53;;;20.05;65.64
80938;BME280;70395;51.382;7.074;2023-07-31T07:50:31;99717.59;;;20.10;65.84
80938;BME280;70395;51.382;7.074;2023-07-31T07:52:57;99718.59;;;20.16;65.33
80938;BME280;70395;51.382;7.074;2023-07-31T07:55:23;99705.16;;;20.21;65.51
80938;BME280;70395;51.382;7.074;2023-07-31T07:57:49;99698.22;;;20.25;65.26
80938;BME280;70395;51.382;7.074;2023-07-31T08:00:16;99705.09;;;20.28;65.71
80938;BME280;70395;51.382;7.074;2023-07-31T08:02:43;99714.09;;;20.28;65.08
80938;BME280;70395;51.382;7.074;2023-07-31T08:05:09;99705.91;;;20.28;65.42
80938;BME280;70395;51.382;7.074;2023-07-31T08:07:35;99704.28;;;20.27;65.51
80938;BME280;70395;51.382;7.074;2023-07-31T08:10:01;99713.47;;;20.26;65.58
80938;BME280;70395;51.382;7.074;2023-07-31T08:12:27;99710.59;;;20.21;65.41
80938;BME280;70395;51.382;7.074;2023-07-31T08:14:53;99711.66;;;20.20;65.72
80938;BME280;70395;51.382;7.074;2023-07-31T08:17:18;99709.56;;;20.22;65.40
80938;BME280;70395;51.382;7.074;2023-07-31T08:19:44;99701.06;;;20.30;65.41
80938;BME280;70395;51.382;7.074;2023-07-31T08:22:11;99701.63;;;20.39;65.42
80938;BME280;70395;51.382;7.074;2023-07-31T08:24:37;99696.09;;;20.46;65.10
80938;BME280;70395;51.382;7.074;2023-07-31T08:27:03;99695.66;;;20.49;65.11
80938;BME280;70395;51.382;7.074;2023-07-31T08:29:29;99689.75;;;20.52;65.36
80938;BME280;70395;51.382;7.074;2023-07-31T08:31:55;99697.25;;;20.57;65.07
80938;BME280;70395;51.382;7.074;2023-07-31T08:34:20;99692.41;;;20.59;65.07
80938;BME280;70395;51.382;7.074;2023-07-31T08:36:46;99691.81;;;20.57;65.18
80938;BME280;70395;51.382;7.074;2023-07-31T08:39:12;99688.44;;;20.55;64.79
80938;BME280;70395;51.382;7.074;2023-07-31T08:41:38;99691.16;;;20.55;64.71
80938;BME280;70395;51.382;7.074;2023-07-31T08:44:08;99688.69;;;20.53;64.82
80938;BME280;70395;51.382;7.074;2023-07-31T08:46:35;99679.91;;;20.51;64.82
80938;BME280;70395;51.382;7.074;2023-07-31T08:49:04;99680.97;;;20.50;64.69
80938;BME280;70395;51.382;7.074;2023-07-31T08:51:36;99672.66;;;20.45;64.64
80938;BME280;70395;51.382;7.074;2023-07-31T08:54:02;99686.50;;;20.43;64.90
80938;BME280;70395;51.382;7.074;2023-07-31T08:56:32;99683.78;;;20.43;65.37
80938;BME280;70395;51.382;7.074;2023-07-31T08:59:02;99680.00;;;20.44;64.65
80938;BME280;70395;51.382;7.074;2023-07-31T09:01:34;99683.31;;;20.46;64.60
80938;BME280;70395;51.382;7.074;2023-07-31T09:04:03;99687.25;;;20.51;64.82
80938;BME280;70395;51.382;7.074;2023-07-31T09:06:30;99692.59;;;20.57;64.86
80938;BME280;70395;51.382;7.074;2023-07-31T09:08:57;99688.75;;;20.65;64.51
80938;BME280;70395;51.382;7.074;2023-07-31T09:11:25;99695.88;;;20.66;64.94
80938;BME280;70395;51.382;7.074;2023-07-31T09:13:52;99694.44;;;20.64;65.04
80938;BME280;70395;51.382;7.074;2023-07-31T09:16:18;99690.28;;;20.61;65.01
80938;BME280;70395;51.382;7.074;2023-07-31T09:18:55;99690.97;;;20.56;64.94
80938;BME280;70395;51.382;7.074;2023-07-31T09:21:23;99686.94;;;20.59;64.96
80938;BME280;70395;51.382;7.074;2023-07-31T09:23:50;99679.81;;;20.58;65.04
80938;BME280;70395;51.382;7.074;2023-07-31T09:26:36;99684.91;;;20.54;64.71
80938;BME280;70395;51.382;7.074;2023-07-31T09:29:07;99678.53;;;20.61;65.10
80938;BME280;70395;51.382;7.074;2023-07-31T09:31:43;99677.03;;;20.65;65.03
80938;BME280;70395;51.382;7.074;2023-07-31T09:34:11;99668.19;;;20.69;64.98
80938;BME280;70395;51.382;7.074;2023-07-31T09:36:50;99675.03;;;20.72;64.91
80938;BME280;70395;51.382;7.074;2023-07-31T09:39:17;99676.88;;;20.78;64.81
80938;BME280;70395;51.382;7.074;2023-07-31T09:41:54;99671.19;;;20.80;64.98
80938;BME280;70395;51.382;7.074;2023-07-31T09:44:20;99676.41;;;20.81;65.04
80938;BME280;70395;51.382;7.074;2023-07-31T09:46:46;99662.78;;;20.81;64.72
80938;BME280;70395;51.382;7.074;2023-07-31T09:49:14;99661.50;;;20.84;65.07
80938;BME280;70395;51.382;7.074;2023-07-31T09:51:42;99654.66;;;20.93;64.71
80938;BME280;70395;51.382;7.074;2023-07-31T09:54:13;99659.59;;;21.03;64.83
80938;BME280;70395;51.382;7.074;2023-07-31T09:56:44;99663.66;;;21.13;64.19
80938;BME280;70395;51.382;7.074;2023-07-31T09:59:19;99656.44;;;21.19;64.51
80938;BME280;70395;51.382;7.074;2023-07-31T10:01:46;99659.53;;;21.22;63.83
80938;BME280;70395;51.382;7.074;2023-07-31T10:04:13;99656.09;;;21.27;64.11
80938;BME280;70395;51.382;7.074;2023-07-31T10:06:42;99658.13;;;21.32;64.00
80938;BME280;70395;51.382;7.074;2023-07-31T10:09:15;99657.06;;;21.33;63.71
80938;BME280;70395;51.382;7.074;2023-07-31T10:11:51;99653.25;;;21.34;63.32
80938;BME280;70395;51.382;7.074;2023-07-31T10:14:24;99659.19;;;21.31;63.88
80938;BME280;70395;51.382;7.074;2023-07-31T10:16:52;99658.13;;;21.32;64.19
80938;BME280;70395;51.382;7.074;2023-07-31T10:19:20;99650.78;;;21.32;64.07
80938;BME280;70395;51.382;7.074;2023-07-31T10:21:48;99654.69;;;21.36;64.13
80938;BME280;70395;51.382;7.074;2023-07-31T10:24:15;99659.69;;;21.40;63.76
80938;BME280;70395;51.382;7.074;2023-07-31T10:26:45;99656.38;;;21.37;63.78
80938;BME280;70395;51.382;7.074;2023-07-31T10:29:15;99660.84;;;21.32;63.70
80938;BME280;70395;51.382;7.074;2023-07-31T10:31:42;99658.47;;;21.23;63.46
80938;BME280;70395;51.382;7.074;2023-07-31T10:34:08;99655.00;;;21.16;63.17
80938;BME280;70395;51.382;7.074;2023-07-31T10:36:34;99653.66;;;21.07;64.02
80938;BME280;70395;51.382;7.074;2023-07-31T10:39:03;99658.34;;;20.99;63.83
80938;BME280;70395;51.382;7.074;2023-07-31T10:41:30;99654.28;;;20.90;63.87
80938;BME280;70395;51.382;7.074;2023-07-31T10:44:01;99654.84;;;20.80;64.29
80938;BME280;70395;51.382;7.074;2023-07-31T10:46:30;99660.38;;;20.73;64.62
80938;BME280;70395;51.382;7.074;2023-07-31T10:49:02;99651.22;;;20.67;65.23
80938;BME280;70395;51.382;7.074;2023-07-31T10:51:35;99655.63;;;20.68;65.08
80938;BME280;70395;51.382;7.074;2023-07-31T10:54:15;99652.91;;;20.68;64.70
80938;BME280;70395;51.382;7.074;2023-07-31T10:56:50;99651.59;;;20.71;64.92
80938;BME280;70395;51.382;7.074;2023-07-31T10:59:16;99656.59;;;20.74;64.98
80938;BME280;70395;51.382;7.074;2023-07-31T11:01:57;99649.47;;;20.73;65.22
80938;BME280;70395;51.382;7.074;2023-07-31T11:04:25;99652.34;;;20.78;65.16
80938;BME280;70395;51.382;7.074;2023-07-31T11:07:00;99647.50;;;20.80;64.51
80938;BME280;70395;51.382;7.074;2023-07-31T11:09:31;99644.91;;;20.86;64.62
80938;BME280;70395;51.382;7.074;2023-07-31T11:11:59;99630.00;;;20.88;64.72
80938;BME280;70395;51.382;7.074;2023-07-31T11:14:25;99634.16;;;20.91;64.81
80938;BME280;70395;51.382;7.074;2023-07-31T11:16:51;99643.53;;;20.95;64.79
80938;BME280;70395;51.382;7.074;2023-07-31T11:19:26;99634.31;;;20.96;65.25
80938;BME280;70395;51.382;7.074;2023-07-31T11:21:53;99630.28;;;20.99;64.83
80938;BME280;70395;51.382;7.074;2023-07-31T11:24:19;99640.50;;;21.03;64.54
80938;BME280;70395;51.382;7.074;2023-07-31T11:26:51;99636.50;;;21.06;64.70
80938;BME280;70395;51.382;7.074;2023-07-31T11:29:18;99640.16;;;21.12;65.04
80938;BME280;70395;51.382;7.074;2023-07-31T11:31:46;99638.16;;;21.19;65.06
80938;BME280;70395;51.382;7.074;2023-07-31T11:34:12;99648.38;;;21.24;64.56
80938;BME280;70395;51.382;7.074;2023-07-31T11:36:38;99640.56;;;21.27;64.45
80938;BME280;70395;51.382;7.074;2023-07-31T11:39:10;99638.69;;;21.28;64.33
80938;BME280;70395;51.382;7.074;2023-07-31T11:41:41;99635.84;;;21.35;64.26
80938;BME280;70395;51.382;7.074;2023-07-31T11:44:07;99630.28;;;21.42;64.28
80938;BME280;70395;51.382;7.074;2023-07-31T11:46:33;99633.38;;;21.45;64.17
80938;BME280;70395;51.382;7.074;2023-07-31T11:49:01;99621.19;;;21.48;63.71
80938;BME280;70395;51.382;7.074;2023-07-31T11:51:29;99634.31;;;21.51;63.91
80938;BME280;70395;51.382;7.074;2023-07-31T11:53:58;99626.25;;;21.56;63.94
80938;BME280;70395;51.382;7.074;2023-07-31T11:56:26;99624.97;;;21.71;64.16
80938;BME280;70395;51.382;7.074;2023-07-31T11:58:59;99629.09;;;21.86;63.82
80938;BME280;70395;51.382;7.074;2023-07-31T12:01:28;99614.69;;;21.97;63.51
80938;BME280;70395;51.382;7.074;2023-07-31T12:03:56;99608.00;;;22.05;63.72
80938;BME280;70395;51.382;7.074;2023-07-31T12:06:32;99613.44;;;22.17;63.52
80938;BME280;70395;51.382;7.074;2023-07-31T12:09:05;99615.31;;;22.28;62.83
80938;BME280;70395;51.382;7.074;2023-07-31T12:11:31;99618.28;;;22.39;62.09
80938;BME280;70395;51.382;7.074;2023-07-31T12:13:57;99618.84;;;22.41;61.96
80938;BME280;70395;51.382;7.074;2023-07-31T12:16:26;99613.03;;;22.37;62.32
80938;BME280;70395;51.382;7.074;2023-07-31T12:18:53;99605.31;;;22.34;62.33
80938;BME280;70395;51.382;7.074;2023-07-31T12:21:19;99621.00;;;22.27;61.78
80938;BME280;70395;51.382;7.074;2023-07-31T12:23:45;99618.41;;;22.20;62.72
80938;BME280;70395;51.382;7.074;2023-07-31T12:26:16;99616.56;;;22.09;62.36
80938;BME280;70395;51.382;7.074;2023-07-31T12:28:48;99613.97;;;22.02;62.40
80938;BME280;70395;51.382;7.074;2023-07-31T12:31:20;99613.00;;;21.96;62.39
80938;BME280;70395;51.382;7.074;2023-07-31T12:33:50;99610.41;;;21.89;62.41
80938;BME280;70395;51.382;7.074;2023-07-31T12:36:19;99610.25;;;21.84;62.15
80938;BME280;70395;51.382;7.074;2023-07-31T12:38:45;99608.25;;;21.79;62.65
80938;BME280;70395;51.382;7.074;2023-07-31T12:41:12;99605.16;;;21.76;62.71
80938;BME280;70395;51.382;7.074;2023-07-31T12:43:40;99587.34;;;21.73;62.35
80938;BME280;70395;51.382;7.074;2023-07-31T12:46:08;99598.50;;;21.71;62.10
80938;BME280;70395;51.382;7.074;2023-07-31T12:48:35;99594.72;;;21.73;62.52
80938;BME280;70395;51.382;7.074;2023-07-31T12:51:02;99602.78;;;21.79;62.23
80938;BME280;70395;51.382;7.074;2023-07-31T12:53:29;99605.06;;;21.82;62.30
80938;BME280;70395;51.382;7.074;2023-07-31T12:55:58;99604.38;;;21.87;62.63
80938;BME280;70395;51.382;7.074;2023-07-31T12:58:24;99604.44;;;21.92;62.17
80938;BME280;70395;51.382;7.074;2023-07-31T13:00:50;99611.84;;;21.92;62.21
80938;BME280;70395;51.382;7.074;2023-07-31T13:03:16;99599.50;;;21.89;62.05
80938;BME280;70395;51.382;7.074;2023-07-31T13:05:42;99594.50;;;21.86;62.63
80938;BME280;70395;51.382;7.074;2023-07-31T13:08:07;99584.53;;;21.80;62.53